Time;durP1;ratioP1;P1;durP2;ratioP2;P2;SDS_P1;SDS_P2;PMS_P1;PMS_P2;Temp;Humidity;BMP_temperature;BMP_pressure;BME280_temperature;BME280_humidity;BME280_pressure;Samples;Min_cycle;Max_cycle;Signal;HPM_P1;HPM_P2
2021/07/16 00:01:34;;;;;;;5.55;3.83;;;17.90;79.50;;;;;;5009105;28;20037;-80
2021/07/16 00:04:00;;;;;;;6.35;3.55;;;17.90;79.30;;;;;;5012982;28;20065;-79
2021/07/16 00:06:26;;;;;;;5.50;4.20;;;17.80;79.60;;;;;;5011676;28;20026;-80
2021/07/16 00:08:51;;;;;;;5.03;3.65;;;17.80;82.10;;;;;;5009198;28;20033;-79
2021/07/16 00:11:17;;;;;;;6.15;4.10;;;17.70;79.70;;;;;;5006027;28;20101;-79
2021/07/16 00:13:43;;;;;;;5.97;3.88;;;17.70;81.20;;;;;;5012711;28;20029;-79
2021/07/16 00:16:08;;;;;;;5.65;4.13;;;17.80;81.20;;;;;;5010018;28;20030;-79
2021/07/16 00:18:34;;;;;;;5.47;3.67;;;17.80;80.10;;;;;;5013537;28;20433;-78
2021/07/16 00:21:03;;;;;;;7.30;4.38;;;17.80;81.80;;;;;;5011465;28;20042;-79
2021/07/16 00:23:30;;;;;;;5.90;4.25;;;17.80;80.90;;;;;;5010056;28;20605;-79
2021/07/16 00:25:56;;;;;;;8.52;4.95;;;17.80;81.60;;;;;;5009881;28;20026;-79
2021/07/16 00:28:22;;;;;;;6.22;4.78;;;17.90;81.10;;;;;;5010059;28;20030;-79
2021/07/16 00:30:50;;;;;;;6.65;4.60;;;17.90;79.30;;;;;;5011897;28;20026;-79
2021/07/16 00:33:16;;;;;;;9.68;5.10;;;17.90;79.40;;;;;;5003321;28;20069;-80
2021/07/16 00:35:43;;;;;;;7.20;4.80;;;17.90;79.60;;;;;;5009643;28;20030;-80
2021/07/16 00:38:09;;;;;;;6.25;4.53;;;18.00;80.90;;;;;;5011036;28;20049;-80
2021/07/16 00:40:34;;;;;;;6.30;4.60;;;18.00;79.40;;;;;;5009711;28;20630;-80
2021/07/16 00:43:00;;;;;;;7.72;4.60;;;18.10;80.00;;;;;;5012074;28;20026;-80
2021/07/16 00:45:26;;;;;;;5.97;4.60;;;18.00;80.10;;;;;;5010541;28;20402;-80
2021/07/16 00:47:52;;;;;;;6.00;4.43;;;18.10;80.70;;;;;;5008497;28;20032;-80
2021/07/16 00:50:22;;;;;;;6.85;5.20;;;18.10;80.60;;;;;;5009584;28;20025;-80
2021/07/16 00:52:48;;;;;;;6.40;4.35;;;18.10;80.30;;;;;;4997927;28;20069;-78
2021/07/16 00:55:15;;;;;;;7.47;4.95;;;18.10;80.20;;;;;;5009500;28;20037;-79
2021/07/16 00:57:42;;;;;;;7.05;4.75;;;18.10;80.70;;;;;;5013207;28;20029;-80
2021/07/16 01:00:09;;;;;;;6.47;4.90;;;18.10;81.20;;;;;;5008200;28;20037;-79
2021/07/16 01:02:35;;;;;;;6.72;4.53;;;18.10;80.60;;;;;;5010774;28;20046;-79
2021/07/16 01:05:01;;;;;;;6.70;4.32;;;18.20;81.50;;;;;;5009634;28;20026;-80
2021/07/16 01:07:27;;;;;;;6.20;4.35;;;18.30;80.40;;;;;;5009376;28;20157;-79
2021/07/16 01:09:53;;;;;;;6.07;4.28;;;18.30;80.20;;;;;;5012494;28;20112;-80
2021/07/16 01:12:21;;;;;;;7.03;5.03;;;18.30;80.70;;;;;;5009860;28;20029;-79
2021/07/16 01:14:47;;;;;;;7.32;5.05;;;18.20;79.80;;;;;;5010560;28;20026;-80
2021/07/16 01:17:13;;;;;;;6.03;4.22;;;18.20;81.60;;;;;;5009164;28;21767;-78
2021/07/16 01:20:00;;;;;;;7.05;4.32;;;18.20;80.50;;;;;;5009270;28;20027;-79
2021/07/16 01:22:31;;;;;;;6.53;4.93;;;18.20;80.30;;;;;;4995269;28;20029;-79
2021/07/16 01:24:58;;;;;;;7.75;5.63;;;18.30;80.00;;;;;;5011583;28;20037;-81
2021/07/16 01:27:24;;;;;;;7.47;5.32;;;18.20;80.30;;;;;;5010789;28;20072;-79
2021/07/16 01:29:50;;;;;;;8.85;5.28;;;18.10;80.90;;;;;;5010329;28;20042;-79
2021/07/16 01:32:17;;;;;;;7.65;5.38;;;18.10;81.10;;;;;;5008942;28;20026;-79
2021/07/16 01:34:44;;;;;;;6.75;5.40;;;18.00;81.30;;;;;;5010232;28;20025;-79
2021/07/16 01:37:10;;;;;;;6.70;5.63;;;18.00;81.60;;;;;;5010286;28;20041;-79
2021/07/16 01:39:36;;;;;;;6.68;5.45;;;18.00;81.50;;;;;;5011301;28;20116;-79
2021/07/16 01:42:06;;;;;;;8.88;5.53;;;18.00;81.20;;;;;;5008239;28;20022;-79
2021/07/16 01:44:33;;;;;;;9.18;5.68;;;18.00;81.70;;;;;;5010221;28;20038;-80
2021/07/16 01:46:59;;;;;;;10.27;5.32;;;18.00;82.40;;;;;;5008936;28;20030;-79
2021/07/16 01:49:25;;;;;;;7.40;5.35;;;18.00;82.80;;;;;;5008788;28;20469;-79
2021/07/16 01:51:51;;;;;;;7.15;4.88;;;18.00;81.20;;;;;;5012192;28;20026;-79
2021/07/16 01:54:17;;;;;;;7.43;5.18;;;18.00;81.80;;;;;;5010390;28;20031;-78
2021/07/16 01:56:43;;;;;;;7.35;4.53;;;18.00;82.70;;;;;;5007234;28;20145;-79
2021/07/16 01:59:09;;;;;;;5.85;4.55;;;18.10;82.10;;;;;;5008676;28;20200;-79
2021/07/16 02:01:35;;;;;;;6.47;4.68;;;18.10;81.60;;;;;;5007651;28;20022;-79
2021/07/16 02:04:01;;;;;;;5.55;4.03;;;18.10;81.40;;;;;;5010921;28;20030;-81
2021/07/16 02:06:27;;;;;;;6.57;4.53;;;18.10;81.80;;;;;;5009841;28;20026;-79
2021/07/16 02:08:52;;;;;;;7.03;4.75;;;18.10;82.90;;;;;;5010032;28;20026;-79
2021/07/16 02:11:21;;;;;;;8.98;5.15;;;18.10;81.80;;;;;;5008198;28;20033;-79
2021/07/16 02:13:48;;;;;;;6.85;5.10;;;18.10;83.00;;;;;;5010124;28;20021;-79
2021/07/16 02:16:14;;;;;;;7.38;4.93;;;18.10;81.70;;;;;;5009920;28;20034;-79
2021/07/16 02:18:39;;;;;;;7.78;4.63;;;18.10;81.20;;;;;;5010669;28;20541;-79
2021/07/16 02:21:05;;;;;;;5.97;4.70;;;18.10;83.20;;;;;;5007313;28;20057;-79
2021/07/16 02:23:31;;;;;;;6.85;4.63;;;18.00;82.50;;;;;;5008481;28;20037;-79
2021/07/16 02:25:57;;;;;;;8.15;4.70;;;18.10;82.60;;;;;;5008046;28;20029;-79
2021/07/16 02:28:29;;;;;;;8.88;4.60;;;18.00;82.90;;;;;;5007242;28;20030;-79
2021/07/16 02:30:55;;;;;;;7.20;4.78;;;18.00;82.40;;;;;;5011139;28;20022;-80
2021/07/16 02:33:22;;;;;;;8.57;4.82;;;17.90;82.80;;;;;;5009325;28;20029;-80
2021/07/16 02:35:48;;;;;;;7.22;5.38;;;17.80;83.30;;;;;;5009662;28;20156;-80
2021/07/16 02:38:14;;;;;;;7.85;5.43;;;17.70;82.10;;;;;;5008245;28;20125;-80
2021/07/16 02:40:41;;;;;;;6.70;4.97;;;17.60;83.80;;;;;;5011773;28;20451;-79
2021/07/16 02:43:08;;;;;;;9.02;6.07;;;17.60;82.70;;;;;;5014066;28;20027;-79
2021/07/16 02:45:34;;;;;;;7.57;5.38;;;17.50;84.50;;;;;;5013640;28;20560;-79
2021/07/16 02:48:00;;;;;;;7.43;5.30;;;17.40;84.40;;;;;;5011810;28;20026;-81
2021/07/16 02:50:31;;;;;;;8.05;5.35;;;17.40;83.50;;;;;;5013084;28;20018;-78
2021/07/16 02:52:57;;;;;;;7.82;5.20;;;17.30;84.80;;;;;;5013268;28;20030;-79
2021/07/16 02:55:23;;;;;;;7.00;5.20;;;17.30;85.10;;;;;;5012896;28;20557;-79
2021/07/16 02:57:50;;;;;;;8.32;5.78;;;17.20;84.20;;;;;;5015557;28;20481;-79
2021/07/16 03:00:21;;;;;;;7.80;4.78;;;17.20;85.80;;;;;;5013095;28;20045;-78
2021/07/16 03:02:49;;;;;;;9.00;5.70;;;17.20;82.90;;;;;;5010435;28;20022;-79
2021/07/16 03:05:20;;;;;;;8.10;5.63;;;17.10;83.30;;;;;;5010291;28;20041;-78
2021/07/16 03:07:46;;;;;;;8.27;5.45;;;17.10;85.50;;;;;;5010327;28;20108;-79
2021/07/16 03:10:19;;;;;;;9.07;6.15;;;17.10;85.90;;;;;;5012365;28;20645;-79
2021/07/16 03:12:45;;;;;;;7.70;5.70;;;17.00;85.80;;;;;;5014134;28;20026;-79
2021/07/16 03:15:15;;;;;;;11.82;6.30;;;16.90;84.80;;;;;;5009085;28;20033;-79
2021/07/16 03:17:40;;;;;;;8.18;5.95;;;16.90;85.80;;;;;;5006109;28;20037;-79
2021/07/16 03:20:14;;;;;;;8.30;6.10;;;16.90;84.10;;;;;;5013313;28;20430;-79
2021/07/16 03:22:40;;;;;;;9.00;5.97;;;16.80;86.00;;;;;;5011978;28;20022;-79
2021/07/16 03:25:09;;;;;;;7.82;5.40;;;16.80;86.80;;;;;;5011907;28;20034;-80
2021/07/16 03:27:36;;;;;;;7.25;5.40;;;16.80;85.50;;;;;;5013055;28;20028;-78
2021/07/16 03:30:03;;;;;;;8.90;5.95;;;16.80;85.20;;;;;;5012213;28;20069;-79
2021/07/16 03:32:28;;;;;;;9.77;5.72;;;16.80;84.80;;;;;;5012471;28;20022;-79
2021/07/16 03:34:54;;;;;;;8.77;6.20;;;16.70;85.10;;;;;;5010804;28;20117;-81
2021/07/16 03:37:19;;;;;;;9.63;6.40;;;16.70;83.90;;;;;;5011610;28;20029;-79
2021/07/16 03:39:46;;;;;;;7.93;6.47;;;16.70;86.20;;;;;;5013927;28;20057;-79
2021/07/16 03:42:11;;;;;;;8.77;6.00;;;16.60;84.80;;;;;;5009401;28;20566;-79
2021/07/16 03:44:37;;;;;;;8.57;6.60;;;16.60;85.00;;;;;;5010817;28;20117;-79
2021/07/16 03:47:03;;;;;;;8.02;5.93;;;16.60;85.80;;;;;;5010411;28;20034;-79
2021/07/16 03:49:29;;;;;;;9.10;6.50;;;16.60;86.60;;;;;;5010595;28;20491;-79
2021/07/16 03:51:56;;;;;;;9.50;6.60;;;16.50;85.00;;;;;;5009020;28;20033;-79
2021/07/16 03:54:22;;;;;;;9.32;6.63;;;16.50;85.40;;;;;;4999185;28;20027;-79
2021/07/16 03:56:48;;;;;;;10.07;6.38;;;16.50;86.20;;;;;;5009162;28;20018;-80
2021/07/16 03:59:14;;;;;;;10.32;5.93;;;16.50;86.10;;;;;;5008457;28;20092;-79
2021/07/16 04:01:40;;;;;;;9.75;6.13;;;16.50;85.30;;;;;;5010699;28;20479;-80
2021/07/16 04:04:06;;;;;;;9.98;6.78;;;16.50;86.10;;;;;;5010444;28;20034;-84
2021/07/16 04:06:33;;;;;;;10.57;6.50;;;16.50;85.80;;;;;;5005185;28;20399;-79
2021/07/16 04:09:44;;;;;;;9.13;6.47;;;16.50;85.00;;;;;;4996984;28;20053;-80
2021/07/16 04:11:44;;;;;;;9.88;6.47;;;16.40;85.90;;;;;;4992622;28;20422;-80
2021/07/16 04:14:10;;;;;;;10.27;6.43;;;16.30;85.30;;;;;;5006540;28;20014;-78
2021/07/16 04:16:35;;;;;;;10.48;7.35;;;16.40;86.60;;;;;;4995316;28;20046;-79
2021/07/16 04:19:01;;;;;;;9.90;6.68;;;16.40;86.20;;;;;;5001087;28;20042;-80
2021/07/16 04:21:27;;;;;;;9.93;7.03;;;16.30;86.00;;;;;;5001673;28;20025;-78
2021/07/16 04:23:53;;;;;;;12.73;7.70;;;16.30;86.50;;;;;;5000013;28;20077;-81
2021/07/16 04:26:18;;;;;;;10.95;7.93;;;16.30;86.80;;;;;;5008134;28;20018;-78
2021/07/16 04:28:44;;;;;;;11.75;6.88;;;16.30;86.80;;;;;;5011092;28;20096;-79
2021/07/16 04:31:10;;;;;;;10.43;6.65;;;16.30;86.70;;;;;;5010416;28;20022;-80
2021/07/16 04:33:35;;;;;;;8.95;6.00;;;16.30;87.50;;;;;;5011913;28;20021;-79
2021/07/16 04:36:01;;;;;;;10.32;7.00;;;16.30;87.20;;;;;;5011208;28;20402;-79
2021/07/16 04:38:26;;;;;;;10.60;7.32;;;16.30;85.50;;;;;;5009925;28;20032;-78
2021/07/16 04:40:52;;;;;;;11.93;7.90;;;16.30;86.10;;;;;;5011004;28;20046;-79
2021/07/16 04:43:18;;;;;;;10.35;7.38;;;16.30;87.60;;;;;;5011231;28;20121;-78
2021/07/16 04:45:43;;;;;;;12.18;7.40;;;16.30;85.80;;;;;;5013137;28;20030;-80
2021/07/16 04:48:09;;;;;;;10.55;7.05;;;16.20;85.40;;;;;;5010023;28;20029;-79
2021/07/16 04:50:37;;;;;;;10.63;7.05;;;16.20;86.50;;;;;;5010690;28;20068;-79
2021/07/16 04:53:03;;;;;;;11.05;7.30;;;16.20;85.50;;;;;;5011015;28;20026;-78
2021/07/16 04:55:28;;;;;;;13.48;7.95;;;16.30;86.80;;;;;;5007992;28;20109;-79
2021/07/16 04:57:54;;;;;;;10.30;6.90;;;16.30;86.60;;;;;;4996621;28;20030;-80
2021/07/16 05:00:20;;;;;;;11.68;7.20;;;16.40;86.50;;;;;;5009404;28;20121;-79
2021/07/16 05:02:46;;;;;;;11.13;7.45;;;16.40;85.80;;;;;;5008892;28;20030;-78
2021/07/16 05:05:12;;;;;;;12.20;7.55;;;16.40;86.90;;;;;;5003261;28;20117;-80
2021/07/16 05:07:38;;;;;;;11.40;8.13;;;16.40;87.50;;;;;;5008474;28;20406;-79
2021/07/16 05:10:05;;;;;;;11.93;8.45;;;16.40;86.80;;;;;;5009849;28;20034;-79
2021/07/16 05:12:31;;;;;;;13.70;8.80;;;16.40;87.00;;;;;;5008365;28;20409;-79
2021/07/16 05:14:57;;;;;;;11.35;8.13;;;16.40;86.20;;;;;;5008708;28;20030;-80
2021/07/16 05:17:25;;;;;;;11.68;8.18;;;16.40;88.30;;;;;;5009788;28;20053;-78
2021/07/16 05:19:50;;;;;;;11.50;7.72;;;16.40;86.80;;;;;;5009154;28;20124;-78
2021/07/16 05:22:16;;;;;;;13.50;8.70;;;16.40;87.10;;;;;;5009927;28;20098;-80
2021/07/16 05:24:41;;;;;;;15.05;9.13;;;16.40;87.30;;;;;;5011913;28;20041;-78
2021/07/16 05:27:07;;;;;;;13.18;8.88;;;16.40;88.90;;;;;;5006204;28;20068;-79
2021/07/16 05:29:33;;;;;;;15.10;9.60;;;16.40;88.00;;;;;;5008338;28;20042;-78
2021/07/16 05:31:59;;;;;;;14.63;9.50;;;16.40;89.30;;;;;;5009959;28;20022;-79
2021/07/16 05:34:25;;;;;;;13.32;9.27;;;16.50;88.10;;;;;;5009362;28;20026;-78
2021/07/16 05:36:50;;;;;;;14.93;8.98;;;16.60;87.90;;;;;;5009466;28;20060;-79
2021/07/16 05:39:16;;;;;;;10.73;8.48;;;16.60;88.00;;;;;;5009691;28;20044;-79
2021/07/16 05:41:41;;;;;;;10.15;8.18;;;16.60;88.10;;;;;;5008109;28;20115;-80
2021/07/16 05:44:07;;;;;;;13.68;9.10;;;16.60;88.60;;;;;;5005221;28;20034;-79
2021/07/16 05:46:33;;;;;;;12.70;8.65;;;16.60;88.40;;;;;;4999126;28;20032;-82
2021/07/16 05:48:59;;;;;;;12.88;9.45;;;16.70;88.80;;;;;;5009127;28;20022;-80
2021/07/16 05:51:24;;;;;;;10.70;8.05;;;16.80;88.40;;;;;;5010608;28;20084;-79
2021/07/16 05:53:50;;;;;;;13.25;9.20;;;16.80;88.80;;;;;;5008217;28;20056;-79
2021/07/16 05:56:16;;;;;;;13.35;8.45;;;16.80;88.00;;;;;;5008013;28;20438;-80
2021/07/16 05:58:41;;;;;;;13.48;9.45;;;16.80;87.90;;;;;;5008213;28;20057;-82
2021/07/16 06:01:07;;;;;;;12.52;8.30;;;16.90;89.00;;;;;;5008215;28;20120;-81
2021/07/16 06:03:33;;;;;;;13.27;9.25;;;17.00;87.70;;;;;;5009573;28;20022;-78
2021/07/16 06:05:58;;;;;;;12.27;8.98;;;17.00;87.40;;;;;;5009996;28;20094;-78
2021/07/16 06:08:24;;;;;;;11.15;8.43;;;17.00;88.50;;;;;;5010187;28;20482;-78
2021/07/16 06:10:49;;;;;;;13.40;9.38;;;17.00;87.50;;;;;;5008527;28;20112;-78
2021/07/16 06:13:15;;;;;;;13.55;8.95;;;17.10;87.30;;;;;;5011968;28;20026;-78
2021/07/16 06:15:41;;;;;;;13.15;8.90;;;17.10;87.70;;;;;;5015233;28;20148;-78
2021/07/16 06:18:06;;;;;;;12.70;8.77;;;17.10;88.10;;;;;;5012024;28;20460;-79
2021/07/16 06:20:34;;;;;;;15.90;9.88;;;17.20;87.50;;;;;;5009992;28;20459;-79
2021/07/16 06:22:59;;;;;;;10.75;8.60;;;17.20;86.80;;;;;;4998412;28;20422;-80
2021/07/16 06:25:25;;;;;;;13.02;9.05;;;17.30;87.40;;;;;;5005806;28;20034;-78
2021/07/16 06:27:51;;;;;;;14.95;9.75;;;17.30;87.90;;;;;;5012755;28;20113;-79
2021/07/16 06:30:17;;;;;;;13.30;8.13;;;17.40;87.50;;;;;;5012451;28;20050;-79
2021/07/16 06:32:43;;;;;;;13.48;9.25;;;17.40;87.40;;;;;;5013026;28;20466;-80
2021/07/16 06:35:09;;;;;;;12.77;8.60;;;17.40;87.30;;;;;;5011659;28;20108;-81
2021/07/16 06:37:38;;;;;;;13.43;8.82;;;17.40;87.20;;;;;;5013703;28;20018;-80
2021/07/16 06:40:06;;;;;;;12.85;9.55;;;17.50;87.90;;;;;;5014374;28;20041;-79
2021/07/16 06:42:32;;;;;;;12.95;8.55;;;17.50;86.60;;;;;;5016622;28;20119;-78
2021/07/16 06:44:58;;;;;;;11.88;8.90;;;17.50;87.30;;;;;;5013293;28;20518;-79
2021/07/16 06:47:23;;;;;;;12.48;8.20;;;17.60;87.10;;;;;;5011484;28;20119;-79
2021/07/16 06:49:49;;;;;;;10.73;7.97;;;17.60;86.70;;;;;;5013369;28;20529;-79
2021/07/16 06:52:15;;;;;;;13.65;9.20;;;17.70;86.10;;;;;;5011767;28;20030;-81
2021/07/16 06:54:41;;;;;;;13.32;8.40;;;17.70;86.80;;;;;;5013865;28;20513;-79
2021/07/16 06:57:06;;;;;;;13.57;8.90;;;17.80;86.40;;;;;;5013167;28;20388;-78
2021/07/16 06:59:32;;;;;;;14.27;8.00;;;17.80;86.60;;;;;;5011495;28;20526;-78
2021/07/16 07:01:58;;;;;;;13.98;7.95;;;17.90;86.70;;;;;;5011119;28;20033;-78
2021/07/16 07:04:24;;;;;;;10.85;8.27;;;17.90;85.90;;;;;;5010375;28;20109;-78
2021/07/16 07:06:50;;;;;;;12.80;8.35;;;18.00;85.80;;;;;;5015202;28;20022;-80
2021/07/16 07:09:17;;;;;;;14.57;8.90;;;17.90;85.80;;;;;;5010366;28;20026;-78
2021/07/16 07:11:42;;;;;;;13.25;9.15;;;17.90;85.90;;;;;;5011443;28;20025;-78
2021/07/16 07:14:08;;;;;;;13.15;9.07;;;17.90;85.50;;;;;;5011414;28;20096;-78
2021/07/16 07:16:34;;;;;;;12.13;8.35;;;17.90;86.40;;;;;;5010924;28;20053;-79
2021/07/16 07:19:01;;;;;;;10.45;7.38;;;18.10;86.10;;;;;;5013049;28;20026;-78
2021/07/16 07:21:26;;;;;;;11.27;7.90;;;18.30;86.30;;;;;;5002403;28;20034;-80
2021/07/16 07:23:52;;;;;;;13.30;7.50;;;18.50;84.80;;;;;;5006233;28;20562;-79
2021/07/16 07:26:18;;;;;;;12.38;8.07;;;18.40;83.70;;;;;;5012487;28;20449;-80
2021/07/16 07:28:43;;;;;;;10.63;7.80;;;18.40;83.20;;;;;;5009389;28;20042;-79
2021/07/16 07:31:09;;;;;;;12.25;7.38;;;18.50;83.80;;;;;;5011206;28;20033;-80
2021/07/16 07:33:35;;;;;;;11.63;7.45;;;18.60;84.00;;;;;;5014109;28;20030;-78
2021/07/16 07:36:00;;;;;;;11.23;7.85;;;18.70;83.50;;;;;;5004915;28;20473;-79
2021/07/16 07:38:26;;;;;;;9.82;6.88;;;18.70;82.50;;;;;;5006802;28;20478;-80
2021/07/16 07:40:53;;;;;;;10.80;6.47;;;18.70;81.80;;;;;;4997898;28;20054;-80
2021/07/16 07:43:19;;;;;;;10.30;6.22;;;18.70;82.20;;;;;;5008962;28;20110;-82
2021/07/16 07:45:44;;;;;;;9.00;6.20;;;18.90;82.70;;;;;;4997994;28;20105;-82
2021/07/16 07:48:11;;;;;;;9.43;5.82;;;19.00;81.70;;;;;;4998583;28;20519;-82
2021/07/16 07:50:36;;;;;;;7.88;4.65;;;19.40;82.40;;;;;;4998604;28;20081;-82
2021/07/16 07:53:02;;;;;;;7.45;4.70;;;19.50;80.80;;;;;;5000657;28;20030;-82
2021/07/16 07:55:28;;;;;;;6.93;4.53;;;19.70;79.20;;;;;;5009800;28;20131;-79
2021/07/16 07:57:54;;;;;;;5.93;4.05;;;19.90;79.50;;;;;;5022138;28;20105;-81
2021/07/16 08:00:24;;;;;;;6.07;3.85;;;20.20;77.00;;;;;;5010379;28;20445;-82
2021/07/16 08:02:49;;;;;;;5.43;3.67;;;20.20;76.30;;;;;;5009755;28;20441;-81
2021/07/16 08:05:15;;;;;;;6.95;3.58;;;20.30;74.80;;;;;;5012641;28;20042;-77
2021/07/16 08:07:42;;;;;;;4.82;3.75;;;20.10;72.80;;;;;;5011941;28;20033;-75
2021/07/16 08:10:11;;;;;;;6.70;3.30;;;20.10;71.90;;;;;;5010373;28;20064;-75
2021/07/16 08:12:37;;;;;;;4.28;3.05;;;20.20;71.80;;;;;;5017479;28;20018;-76
2021/07/16 08:15:06;;;;;;;7.40;3.50;;;20.30;72.90;;;;;;5013158;28;20109;-77
2021/07/16 08:17:31;;;;;;;5.95;3.10;;;20.00;70.10;;;;;;5011126;28;20014;-75
2021/07/16 08:19:57;;;;;;;7.60;3.28;;;19.80;71.20;;;;;;5010370;28;20525;-75
2021/07/16 08:22:23;;;;;;;5.53;3.53;;;19.80;72.30;;;;;;5011656;28;20092;-76
2021/07/16 08:24:48;;;;;;;6.65;3.20;;;20.00;72.20;;;;;;5009079;28;20018;-74
2021/07/16 08:27:15;;;;;;;6.03;3.33;;;20.10;70.90;;;;;;5010980;28;20041;-80
2021/07/16 08:29:40;;;;;;;6.45;3.50;;;20.00;71.10;;;;;;5013881;28;20064;-78
2021/07/16 08:32:06;;;;;;;6.47;3.10;;;20.10;73.40;;;;;;5020917;28;20391;-78
2021/07/16 08:34:32;;;;;;;4.22;3.20;;;20.10;70.50;;;;;;5011482;28;20122;-78
2021/07/16 08:36:58;;;;;;;3.65;2.63;;;20.00;70.50;;;;;;4996178;28;20546;-81
2021/07/16 08:39:23;;;;;;;6.50;3.17;;;20.00;71.80;;;;;;5008845;28;20418;-74
2021/07/16 08:41:51;;;;;;;4.47;2.75;;;20.10;69.50;;;;;;5001937;28;20030;-74
2021/07/16 08:44:17;;;;;;;4.97;2.75;;;20.10;70.40;;;;;;5008591;28;20097;-73
2021/07/16 08:46:47;;;;;;;6.53;3.13;;;20.20;70.10;;;;;;5011077;28;20488;-74
2021/07/16 08:49:15;;;;;;;3.83;2.63;;;20.40;71.10;;;;;;5009789;28;20038;-75
2021/07/16 08:51:42;;;;;;;5.45;2.88;;;20.70;69.20;;;;;;5011394;28;20034;-74
2021/07/16 08:54:15;;;;;;;4.53;2.85;;;20.50;67.30;;;;;;5009947;28;20022;-74
2021/07/16 08:56:40;;;;;;;6.20;2.53;;;20.40;66.30;;;;;;5010877;28;20080;-74
2021/07/16 08:59:09;;;;;;;4.13;2.90;;;20.10;66.60;;;;;;5009360;28;20029;-74
2021/07/16 09:01:39;;;;;;;4.50;2.25;;;19.90;67.00;;;;;;5009339;28;20033;-74
2021/07/16 09:04:07;;;;;;;4.18;2.53;;;19.80;66.80;;;;;;5016339;28;20079;-73
2021/07/16 09:06:50;;;;;;;5.85;2.90;;;19.70;66.60;;;;;;5010769;28;20030;-76
2021/07/16 09:09:22;;;;;;;5.78;2.80;;;19.50;67.50;;;;;;5009103;28;20045;-75
2021/07/16 09:11:51;;;;;;;5.20;2.53;;;19.60;67.70;;;;;;5008177;28;20057;-75
2021/07/16 09:14:37;;;;;;;4.25;2.60;;;19.70;68.40;;;;;;5010370;28;20057;-75
2021/07/16 09:17:09;;;;;;;6.43;3.03;;;19.80;67.80;;;;;;5008929;28;20065;-74
2021/07/16 09:19:37;;;;;;;2.95;2.40;;;19.80;67.30;;;;;;5009372;28;20042;-75
2021/07/16 09:22:10;;;;;;;4.78;2.50;;;19.90;67.60;;;;;;5009342;28;20113;-75
2021/07/16 09:24:37;;;;;;;5.07;2.92;;;20.10;67.20;;;;;;5010900;28;20029;-74
2021/07/16 09:27:42;;;;;;;6.95;2.88;;;20.30;65.90;;;;;;5008613;28;20064;-75
2021/07/16 09:30:28;;;;;;;7.05;2.70;;;20.40;64.70;;;;;;5008733;28;20414;-75
2021/07/16 09:33:00;;;;;;;5.45;2.83;;;20.50;65.00;;;;;;5008787;28;20030;-74
2021/07/16 09:35:34;;;;;;;5.60;2.80;;;20.60;65.20;;;;;;5007438;28;20037;-74
2021/07/16 09:38:06;;;;;;;7.43;2.90;;;20.50;64.10;;;;;;5007508;28;20030;-74
2021/07/16 09:40:40;;;;;;;5.22;2.67;;;20.40;63.60;;;;;;5008442;28;20038;-74
2021/07/16 09:43:13;;;;;;;5.40;2.58;;;20.20;64.40;;;;;;5010527;28;20029;-83
2021/07/16 09:45:40;;;;;;;4.32;2.70;;;20.10;64.60;;;;;;5006958;28;20045;-74
2021/07/16 09:48:34;;;;;;;4.38;2.42;;;20.00;65.20;;;;;;5006827;28;20153;-75
2021/07/16 09:51:13;;;;;;;7.80;2.90;;;20.00;64.90;;;;;;5010274;28;20418;-75
2021/07/16 09:53:58;;;;;;;4.97;2.60;;;20.00;66.00;;;;;;4998146;28;20034;-74
2021/07/16 09:56:27;;;;;;;4.88;2.90;;;20.00;66.10;;;;;;5002183;28;20076;-74
2021/07/16 09:59:17;;;;;;;6.78;3.00;;;19.90;64.20;;;;;;4995514;28;20035;-75
2021/07/16 10:01:48;;;;;;;4.47;2.75;;;19.90;66.00;;;;;;4994737;28;20044;-74
2021/07/16 10:04:21;;;;;;;4.07;2.65;;;19.90;66.40;;;;;;5014517;28;20057;-75
2021/07/16 10:06:49;;;;;;;4.30;2.58;;;20.00;64.90;;;;;;5011860;28;20557;-76
2021/07/16 10:09:16;;;;;;;3.17;2.45;;;20.10;64.80;;;;;;5008516;28;20042;-78
2021/07/16 10:11:48;;;;;;;3.35;2.40;;;20.00;62.90;;;;;;5009989;28;20026;-74
2021/07/16 10:14:15;;;;;;;3.55;2.55;;;20.00;64.60;;;;;;5009777;28;20410;-74
2021/07/16 10:16:45;;;;;;;4.68;2.75;;;20.10;64.70;;;;;;5008522;28;20018;-73
2021/07/16 10:19:13;;;;;;;5.18;2.75;;;20.20;65.10;;;;;;5008553;28;20402;-75
2021/07/16 10:21:40;;;;;;;5.38;2.70;;;20.10;61.90;;;;;;5011810;28;20112;-74
2021/07/16 10:24:07;;;;;;;4.68;2.63;;;20.10;62.60;;;;;;5009665;28;20410;-74
2021/07/16 10:26:34;;;;;;;4.13;2.80;;;20.10;60.90;;;;;;5010521;28;20406;-76
2021/07/16 10:28:59;;;;;;;4.70;2.83;;;20.10;61.00;;;;;;5008098;28;20053;-75
2021/07/16 10:31:28;;;;;;;7.05;3.08;;;20.10;61.50;;;;;;5003375;28;20402;-75
2021/07/16 10:33:55;;;;;;;4.00;2.90;;;20.10;62.10;;;;;;5011315;28;20550;-74
2021/07/16 10:36:45;;;;;;;5.70;3.00;;;20.10;63.80;;;;;;5008859;28;20030;-74
2021/07/16 10:39:22;;;;;;;4.97;2.97;;;20.20;63.70;;;;;;5000430;28;20038;-74
2021/07/16 10:41:48;;;;;;;5.75;2.90;;;20.30;62.70;;;;;;5004522;28;20038;-76
2021/07/16 10:44:15;;;;;;;5.22;3.05;;;20.30;62.00;;;;;;5002305;28;20030;-75
2021/07/16 10:46:45;;;;;;;5.95;3.08;;;20.40;62.10;;;;;;5008056;28;20019;-78
2021/07/16 10:49:12;;;;;;;4.85;2.85;;;20.40;61.90;;;;;;5007960;28;20110;-78
2021/07/16 10:51:40;;;;;;;5.50;3.10;;;20.40;60.90;;;;;;4993829;28;20022;-75
2021/07/16 10:54:10;;;;;;;4.95;2.78;;;20.50;61.30;;;;;;4993024;28;20498;-75
2021/07/16 10:56:47;;;;;;;5.03;3.13;;;20.50;60.40;;;;;;4993509;28;20019;-78
2021/07/16 10:59:42;;;;;;;3.67;2.65;;;20.50;61.80;;;;;;5001672;28;20042;-77
2021/07/16 11:02:46;;;;;;;4.63;3.38;;;20.50;62.00;;;;;;5005473;28;20113;-76
2021/07/16 11:05:35;;;;;;;4.88;2.70;;;20.50;62.60;;;;;;5010014;28;20026;-78
2021/07/16 11:08:02;;;;;;;5.13;2.97;;;20.60;62.90;;;;;;5000379;28;20506;-75
2021/07/16 11:10:47;;;;;;;4.22;2.97;;;20.70;62.70;;;;;;4998611;28;20030;-75
2021/07/16 11:13:34;;;;;;;5.55;3.20;;;20.70;59.20;;;;;;5012824;28;20411;-76
2021/07/16 11:16:15;;;;;;;6.05;3.05;;;20.70;60.40;;;;;;4998055;28;20030;-78
2021/07/16 11:19:24;;;;;;;5.25;2.90;;;20.70;60.80;;;;;;5009193;28;20494;-79
2021/07/16 11:21:51;;;;;;;4.05;2.65;;;20.80;60.10;;;;;;5001959;28;20081;-79
2021/07/16 11:24:17;;;;;;;5.60;3.33;;;20.80;60.00;;;;;;5011215;28;20486;-80
2021/07/16 11:26:52;;;;;;;6.03;3.00;;;20.80;59.70;;;;;;5011757;28;20092;-78
2021/07/16 11:29:25;;;;;;;4.25;2.90;;;20.80;59.00;;;;;;5004415;28;20042;-80
2021/07/16 11:32:02;;;;;;;4.07;2.95;;;20.80;59.40;;;;;;5011174;28;20108;-80
2021/07/16 11:34:27;;;;;;;4.88;3.13;;;20.90;60.00;;;;;;4995595;28;20030;-79
2021/07/16 11:36:53;;;;;;;5.65;2.88;;;20.90;58.30;;;;;;5012891;28;20034;-80
2021/07/16 11:39:37;;;;;;;4.60;2.90;;;20.90;58.10;;;;;;5012363;28;20026;-79
2021/07/16 11:42:08;;;;;;;4.72;3.28;;;20.90;60.30;;;;;;5012168;28;20026;-81
2021/07/16 11:44:38;;;;;;;4.85;2.80;;;21.00;59.00;;;;;;5012118;28;20033;-80
2021/07/16 11:47:24;;;;;;;3.13;2.58;;;21.00;58.80;;;;;;5010701;28;20510;-81
2021/07/16 11:49:55;;;;;;;4.50;2.85;;;21.10;59.00;;;;;;5009907;28;20491;-80
2021/07/16 11:52:26;;;;;;;6.13;2.92;;;21.10;59.40;;;;;;4995048;28;20430;-80
2021/07/16 11:54:54;;;;;;;4.30;2.95;;;21.10;60.00;;;;;;5010429;28;20030;-80
2021/07/16 11:57:21;;;;;;;5.10;2.67;;;21.20;59.20;;;;;;5009833;28;20541;-79
2021/07/16 11:59:52;;;;;;;3.90;2.88;;;21.20;59.90;;;;;;5010493;28;20030;-80
2021/07/16 12:02:22;;;;;;;6.38;3.00;;;21.20;59.00;;;;;;5009633;28;20058;-80
2021/07/16 12:04:50;;;;;;;4.80;2.80;;;21.20;58.10;;;;;;5010564;28;20112;-80
2021/07/16 12:07:17;;;;;;;3.47;2.63;;;21.30;56.60;;;;;;5011751;28;20029;-80
2021/07/16 12:09:48;;;;;;;3.03;2.67;;;21.30;58.00;;;;;;5013913;28;20026;-80
2021/07/16 12:12:23;;;;;;;3.63;2.60;;;21.30;58.20;;;;;;5011838;28;20034;-80
2021/07/16 12:14:58;;;;;;;4.32;2.70;;;21.40;58.70;;;;;;5010365;28;20105;-80
2021/07/16 12:17:36;;;;;;;4.90;2.80;;;21.30;57.70;;;;;;5010324;28;20014;-80
2021/07/16 12:20:05;;;;;;;3.95;2.60;;;21.40;58.90;;;;;;5010052;28;20057;-79
2021/07/16 12:22:33;;;;;;;6.75;3.35;;;21.50;60.20;;;;;;5011830;28;20054;-79
2021/07/16 12:25:00;;;;;;;4.88;3.00;;;21.50;59.10;;;;;;5011453;28;20504;-81
2021/07/16 12:27:26;;;;;;;6.53;3.22;;;21.50;58.90;;;;;;5012735;28;20018;-81
2021/07/16 12:30:01;;;;;;;8.98;3.20;;;21.50;58.90;;;;;;5010069;28;20056;-80
2021/07/16 12:32:35;;;;;;;4.40;2.90;;;21.50;59.00;;;;;;5010154;28;20017;-80
2021/07/16 12:35:29;;;;;;;5.32;3.20;;;21.50;59.40;;;;;;5011579;28;20034;-80
2021/07/16 12:38:00;;;;;;;4.78;2.85;;;21.50;59.20;;;;;;5010486;28;20030;-80
2021/07/16 12:40:26;;;;;;;5.65;2.83;;;21.70;57.70;;;;;;4995013;28;20038;-80
2021/07/16 12:43:00;;;;;;;3.50;2.83;;;21.60;57.60;;;;;;5013393;28;20030;-80
2021/07/16 12:45:55;;;;;;;4.60;2.80;;;21.70;58.30;;;;;;5011163;28;20467;-80
2021/07/16 12:48:29;;;;;;;3.83;2.55;;;21.70;58.50;;;;;;5010509;28;20030;-80
2021/07/16 12:51:15;;;;;;;8.43;3.20;;;21.80;58.60;;;;;;5009424;28;20076;-82